createdAt,value
2019-06-08T00:00:03.873Z,980.63
2019-06-08T00:01:03.794Z,980.67
2019-06-08T00:02:03.726Z,980.70
2019-06-08T00:03:03.641Z,980.73
2019-06-08T00:04:03.570Z,980.73
2019-06-08T00:05:03.492Z,980.76
2019-06-08T00:06:03.419Z,980.80
2019-06-08T00:07:03.342Z,980.67
2019-06-08T00:08:03.288Z,980.77
2019-06-08T00:09:03.220Z,980.87
2019-06-08T00:10:03.114Z,980.79
2019-06-08T00:11:03.044Z,980.90
2019-06-08T00:12:02.974Z,980.86
2019-06-08T00:13:02.888Z,980.86
2019-06-08T00:14:02.809Z,980.92
2019-06-08T00:15:02.729Z,980.91
2019-06-08T00:16:02.671Z,980.93
2019-06-08T00:17:02.588Z,981.00
2019-06-08T00:18:02.509Z,981.05
2019-06-08T00:19:02.431Z,981.13
2019-06-08T00:20:02.358Z,981.10
2019-06-08T00:21:02.277Z,981.08
2019-06-08T00:22:02.222Z,981.12
2019-06-08T00:23:02.130Z,981.05
2019-06-08T00:24:02.057Z,981.09
2019-06-08T00:25:02.069Z,981.15
2019-06-08T00:26:01.932Z,981.13
2019-06-08T00:27:01.828Z,981.12
2019-06-08T00:28:01.756Z,981.16
2019-06-08T00:29:01.680Z,981.16
2019-06-08T00:30:01.644Z,981.13
2019-06-08T00:31:01.526Z,981.15
2019-06-08T00:32:01.448Z,981.18
2019-06-08T00:33:01.375Z,981.17
2019-06-08T00:34:01.297Z,981.14
2019-06-08T00:35:01.215Z,981.18
2019-06-08T00:36:01.151Z,981.18
2019-06-08T00:37:01.073Z,981.17
2019-06-08T00:38:00.998Z,981.14
2019-06-08T00:39:00.920Z,981.16
2019-06-08T00:40:00.843Z,981.17
2019-06-08T00:41:00.773Z,981.10
2019-06-08T00:42:00.695Z,981.18
2019-06-08T00:43:00.618Z,981.18
2019-06-08T00:44:00.547Z,981.19
2019-06-08T00:45:00.471Z,981.17
2019-06-08T00:46:00.389Z,981.21
2019-06-08T00:47:00.314Z,981.16
2019-06-08T00:48:00.239Z,981.18
2019-06-08T00:49:00.163Z,981.15
2019-06-08T00:50:00.085Z,981.18
2019-06-08T00:51:00.014Z,981.22
2019-06-08T00:51:59.934Z,981.19
2019-06-08T00:52:59.868Z,981.21
2019-06-08T00:53:59.785Z,981.22
2019-06-08T00:54:59.710Z,981.28
2019-06-08T00:55:59.641Z,981.25
2019-06-08T00:56:59.557Z,981.30
2019-06-08T00:57:59.480Z,981.31
2019-06-08T00:58:59.405Z,981.36
2019-06-08T00:59:59.331Z,981.37
2019-06-08T01:00:59.261Z,981.39
2019-06-08T01:01:59.186Z,981.32
2019-06-08T01:02:59.106Z,981.40
2019-06-08T01:03:59.034Z,981.38
2019-06-08T01:04:58.969Z,981.38
2019-06-08T01:05:58.878Z,981.38
2019-06-08T01:06:58.804Z,981.37
2019-06-08T01:07:58.726Z,981.35
2019-06-08T01:08:58.655Z,981.32
2019-06-08T01:09:58.577Z,981.36
2019-06-08T01:10:58.508Z,981.34
2019-06-08T01:11:58.429Z,981.36
2019-06-08T01:12:58.351Z,981.38
2019-06-08T01:13:58.274Z,981.46
2019-06-08T01:14:58.201Z,981.43
2019-06-08T01:15:58.123Z,981.48
2019-06-08T01:16:58.056Z,981.49
2019-06-08T01:18:03.282Z,981.49
2019-06-08T01:18:57.899Z,981.54
2019-06-08T01:19:57.821Z,981.54
2019-06-08T01:20:57.752Z,981.58
2019-06-08T01:21:57.670Z,981.61
2019-06-08T01:22:57.594Z,981.64
2019-06-08T01:23:57.520Z,981.61
2019-06-08T01:24:57.445Z,981.64
2019-06-08T01:25:57.369Z,981.66
2019-06-08T01:26:57.299Z,981.68
2019-06-08T01:27:57.218Z,981.63
2019-06-08T01:28:57.141Z,981.65
2019-06-08T01:29:57.062Z,981.64
2019-06-08T01:30:56.988Z,981.63
2019-06-08T01:31:56.913Z,981.64
2019-06-08T01:32:56.847Z,981.70
2019-06-08T01:33:56.761Z,981.69
2019-06-08T01:34:56.682Z,981.75
2019-06-08T01:35:56.611Z,981.75
2019-06-08T01:36:56.533Z,981.77
2019-06-08T01:37:56.460Z,981.86
2019-06-08T01:38:56.381Z,981.84
2019-06-08T01:39:56.309Z,981.82
2019-06-08T01:40:56.231Z,981.84
2019-06-08T01:41:56.156Z,981.79
2019-06-08T01:42:56.085Z,981.77
2019-06-08T01:43:56.003Z,981.79
2019-06-08T01:44:55.935Z,981.80
2019-06-08T01:45:55.853Z,981.76
2019-06-08T01:46:55.776Z,981.73
2019-06-08T01:47:55.699Z,981.73
2019-06-08T01:48:55.625Z,981.64
2019-06-08T01:49:55.548Z,981.67
2019-06-08T01:50:55.474Z,981.73
2019-06-08T01:51:55.406Z,981.74
2019-06-08T01:52:55.321Z,981.78
2019-06-08T01:53:55.243Z,981.77
2019-06-08T01:54:55.168Z,981.74
2019-06-08T01:55:55.092Z,981.75
2019-06-08T01:56:55.017Z,981.77
2019-06-08T01:57:54.940Z,981.83
2019-06-08T01:58:54.866Z,981.81
2019-06-08T01:59:54.788Z,981.87
2019-06-08T02:00:54.720Z,981.84
2019-06-08T02:01:54.643Z,981.84
2019-06-08T02:02:54.562Z,981.76
2019-06-08T02:03:54.486Z,981.81
2019-06-08T02:04:54.406Z,981.73
2019-06-08T02:05:54.331Z,981.74
2019-06-08T02:06:54.258Z,981.71
2019-06-08T02:07:54.185Z,981.72
2019-06-08T02:08:54.107Z,981.68
2019-06-08T02:09:54.030Z,981.71
2019-06-08T02:10:53.954Z,981.71
2019-06-08T02:11:53.880Z,981.72
2019-06-08T02:12:53.802Z,981.69
2019-06-08T02:13:53.725Z,981.72
2019-06-08T02:14:53.650Z,981.70
2019-06-08T02:15:53.576Z,981.71
2019-06-08T02:16:53.504Z,981.76
2019-06-08T02:17:53.423Z,981.74
2019-06-08T02:18:53.343Z,981.74
2019-06-08T02:19:53.267Z,981.77
2019-06-08T02:20:53.194Z,981.79
2019-06-08T02:21:53.117Z,981.79
2019-06-08T02:22:53.039Z,981.82
2019-06-08T02:23:52.960Z,981.82
2019-06-08T02:24:52.890Z,981.78
2019-06-08T02:25:52.810Z,981.78
2019-06-08T02:26:52.743Z,981.74
2019-06-08T02:27:52.656Z,981.70
2019-06-08T02:28:52.596Z,981.68
2019-06-08T02:29:52.510Z,981.66
2019-06-08T02:30:52.433Z,981.71
2019-06-08T02:31:52.361Z,981.74
2019-06-08T02:32:52.286Z,981.74
2019-06-08T02:33:59.858Z,981.77
2019-06-08T02:35:56.597Z,981.83
2019-06-08T02:36:56.443Z,981.87
2019-06-08T02:39:00.836Z,981.91
2019-06-08T02:40:00.747Z,981.91
2019-06-08T02:41:00.667Z,981.99
2019-06-08T02:42:00.592Z,982.08
2019-06-08T02:43:00.519Z,982.08
2019-06-08T02:44:00.457Z,982.13
2019-06-08T02:45:00.365Z,982.18
2019-06-08T02:46:00.288Z,982.22
2019-06-08T02:47:00.216Z,982.28
2019-06-08T02:48:00.140Z,982.28
2019-06-08T02:49:04.305Z,982.27
2019-06-08T02:49:59.982Z,982.27
2019-06-08T02:50:59.914Z,982.20
2019-06-08T02:51:59.835Z,982.26
2019-06-08T02:52:59.758Z,982.29
2019-06-08T02:53:59.682Z,982.35
2019-06-08T02:54:59.609Z,982.40
2019-06-08T02:55:59.534Z,982.46
2019-06-08T02:56:59.455Z,982.47
2019-06-08T02:57:59.379Z,982.48
2019-06-08T02:58:59.305Z,982.52
2019-06-08T02:59:59.230Z,982.55
2019-06-08T03:00:59.159Z,982.57
2019-06-08T03:01:59.091Z,982.61
2019-06-08T03:02:59.004Z,982.65
2019-06-08T03:03:58.925Z,982.65
2019-06-08T03:04:58.851Z,982.66
2019-06-08T03:05:58.776Z,982.67
2019-06-08T03:06:58.698Z,982.66
2019-06-08T03:07:58.623Z,982.61
2019-06-08T03:08:58.547Z,982.65
2019-06-08T03:09:58.472Z,982.65
2019-06-08T03:10:58.398Z,982.64
2019-06-08T03:11:58.321Z,982.65
2019-06-08T03:12:58.245Z,982.70
2019-06-08T03:13:58.168Z,982.71
2019-06-08T03:14:58.093Z,982.69
2019-06-08T03:15:58.017Z,982.68
2019-06-08T03:16:57.940Z,982.70
2019-06-08T03:17:57.880Z,982.78
2019-06-08T03:18:57.785Z,982.82
2019-06-08T03:19:57.711Z,982.82
2019-06-08T03:20:57.635Z,982.82
2019-06-08T03:21:57.561Z,982.80
2019-06-08T03:22:57.483Z,982.85
2019-06-08T03:23:57.411Z,982.87
2019-06-08T03:24:57.331Z,982.89
2019-06-08T03:25:57.256Z,982.87
2019-06-08T03:26:57.178Z,982.85
2019-06-08T03:27:57.104Z,982.86
2019-06-08T03:28:57.029Z,982.86
2019-06-08T03:29:56.953Z,982.79
2019-06-08T03:30:56.896Z,982.82
2019-06-08T03:31:57.626Z,982.79
2019-06-08T03:32:57.350Z,982.84
2019-06-08T03:33:56.849Z,982.83
2019-06-08T03:34:57.338Z,982.82
2019-06-08T03:35:58.449Z,982.86
2019-06-08T03:36:57.587Z,982.87
2019-06-08T03:37:56.340Z,982.90
2019-06-08T03:38:56.264Z,982.93
2019-06-08T03:39:56.188Z,982.99
2019-06-08T03:40:56.114Z,983.02
2019-06-08T03:41:56.033Z,983.01
2019-06-08T03:42:57.704Z,983.06
2019-06-08T03:43:55.888Z,983.07
2019-06-08T03:44:55.802Z,983.03
2019-06-08T03:45:55.727Z,983.05
2019-06-08T03:46:55.658Z,983.05
2019-06-08T03:47:55.578Z,983.07
2019-06-08T03:48:55.499Z,983.10
2019-06-08T03:49:57.510Z,983.08
2019-06-08T03:50:55.352Z,983.07
2019-06-08T03:51:55.272Z,983.08
2019-06-08T03:52:55.194Z,983.10
2019-06-08T03:53:55.116Z,983.10
2019-06-08T03:54:55.042Z,983.09
2019-06-08T03:55:54.965Z,983.14
2019-06-08T03:56:54.899Z,983.15
2019-06-08T03:57:54.813Z,983.18
2019-06-08T03:58:54.745Z,983.18
2019-06-08T03:59:54.665Z,983.20
2019-06-08T04:00:54.585Z,983.21
2019-06-08T04:01:54.508Z,983.23
2019-06-08T04:02:54.433Z,983.21
2019-06-08T04:03:54.356Z,983.26
2019-06-08T04:04:54.281Z,983.29
2019-06-08T04:05:54.211Z,983.29
2019-06-08T04:06:54.129Z,983.32
2019-06-08T04:07:54.049Z,983.33
2019-06-08T04:08:53.975Z,983.38
2019-06-08T04:09:53.903Z,983.43
2019-06-08T04:10:53.824Z,983.48
2019-06-08T04:11:53.747Z,983.48
2019-06-08T04:12:53.675Z,983.51
2019-06-08T04:13:53.597Z,983.55
2019-06-08T04:14:53.520Z,983.60
2019-06-08T04:15:53.443Z,983.60
2019-06-08T04:16:53.368Z,983.63
2019-06-08T04:17:53.290Z,983.62
2019-06-08T04:18:53.217Z,983.62
2019-06-08T04:20:09.579Z,983.60
2019-06-08T04:20:53.066Z,983.59
2019-06-08T04:21:52.989Z,983.58
2019-06-08T04:22:52.912Z,983.61
2019-06-08T04:23:52.841Z,983.64
2019-06-08T04:24:52.757Z,983.64
2019-06-08T04:25:52.681Z,983.63
2019-06-08T04:26:52.606Z,983.63
2019-06-08T04:27:52.535Z,983.58
2019-06-08T04:28:52.466Z,983.57
2019-06-08T04:29:52.381Z,983.57
2019-06-08T04:30:52.304Z,983.59
2019-06-08T04:31:52.226Z,983.55
2019-06-08T04:32:52.164Z,983.51
2019-06-08T04:33:52.077Z,983.54
2019-06-08T04:34:52.003Z,983.52
2019-06-08T04:35:51.933Z,983.52
2019-06-08T04:36:51.855Z,983.59
2019-06-08T04:37:51.771Z,983.58
2019-06-08T04:38:51.695Z,983.56
2019-06-08T04:39:51.618Z,983.61
2019-06-08T04:40:51.546Z,983.61
2019-06-08T04:41:51.466Z,983.64
2019-06-08T04:42:51.397Z,983.66
2019-06-08T04:43:51.319Z,983.72
2019-06-08T04:44:51.241Z,983.75
2019-06-08T04:45:51.164Z,983.77
2019-06-08T04:46:51.093Z,983.79
2019-06-08T04:47:51.012Z,983.81
2019-06-08T04:48:50.935Z,983.84
2019-06-08T04:49:50.863Z,983.90
2019-06-08T04:50:50.786Z,983.87
2019-06-08T04:51:50.708Z,983.92
2019-06-08T04:52:50.635Z,983.93
2019-06-08T04:53:50.561Z,983.93
2019-06-08T04:54:50.486Z,983.96
2019-06-08T04:55:50.416Z,983.92
2019-06-08T04:56:50.331Z,983.98
2019-06-08T04:57:50.787Z,983.98
2019-06-08T04:58:51.244Z,984.07
2019-06-08T04:59:50.533Z,984.11
2019-06-08T05:00:50.810Z,984.12
2019-06-08T05:01:49.975Z,984.15
2019-06-08T05:02:51.075Z,984.13
2019-06-08T05:03:50.187Z,984.16
2019-06-08T05:04:49.724Z,984.17
2019-06-08T05:05:50.250Z,984.16
2019-06-08T05:06:49.763Z,984.16
2019-06-08T05:07:50.337Z,984.16
2019-06-08T05:08:49.712Z,984.10
2019-06-08T05:09:49.603Z,984.06
2019-06-08T05:10:49.777Z,983.98
2019-06-08T05:11:49.805Z,983.97
2019-06-08T05:12:50.128Z,984.00
2019-06-08T05:13:49.671Z,984.02
2019-06-08T05:14:49.299Z,984.03
2019-06-08T05:15:50.299Z,984.07
2019-06-08T05:16:49.735Z,984.07
2019-06-08T05:17:49.634Z,984.09
2019-06-08T05:18:49.630Z,984.10
2019-06-08T05:19:50.294Z,984.10
2019-06-08T05:20:50.811Z,984.16
2019-06-08T05:21:49.843Z,984.15
2019-06-08T05:22:49.750Z,984.17
2019-06-08T05:23:55.079Z,984.19
2019-06-08T05:24:49.855Z,984.21
2019-06-08T05:25:49.155Z,984.24
2019-06-08T05:26:49.477Z,984.27
2019-06-08T05:27:48.008Z,984.30
2019-06-08T05:28:47.909Z,984.34
2019-06-08T05:29:47.832Z,984.40
2019-06-08T05:30:47.759Z,984.39
2019-06-08T05:31:47.689Z,984.34
2019-06-08T05:32:47.640Z,984.40
2019-06-08T05:33:47.601Z,984.43
2019-06-08T05:34:47.616Z,984.41
2019-06-08T05:35:47.609Z,984.45
2019-06-08T05:36:47.582Z,984.46
2019-06-08T05:37:47.774Z,984.49
2019-06-08T05:38:47.622Z,984.51
2019-06-08T05:39:47.814Z,984.50
2019-06-08T05:40:47.709Z,984.57
2019-06-08T05:41:47.610Z,984.55
2019-06-08T05:42:47.896Z,984.61
2019-06-08T05:43:47.678Z,984.60
2019-06-08T05:44:47.843Z,984.61
2019-06-08T05:45:48.320Z,984.65
2019-06-08T05:46:47.711Z,984.69
2019-06-08T05:47:47.839Z,984.68
2019-06-08T05:48:46.391Z,984.78
2019-06-08T05:49:46.324Z,984.80
2019-06-08T05:51:00.449Z,984.80
2019-06-08T05:51:46.170Z,984.84
2019-06-08T05:52:46.088Z,984.89
2019-06-08T05:53:46.015Z,984.87
2019-06-08T05:54:45.939Z,984.89
2019-06-08T05:55:46.199Z,984.93
2019-06-08T05:56:46.017Z,985.00
2019-06-08T05:57:46.281Z,984.99
2019-06-08T05:58:46.000Z,985.04
2019-06-08T05:59:46.121Z,985.01
2019-06-08T06:00:46.263Z,985.03
2019-06-08T06:01:46.755Z,985.07
2019-06-08T06:02:45.333Z,985.08
2019-06-08T06:03:46.511Z,985.13
2019-06-08T06:04:46.320Z,985.14
2019-06-08T06:05:45.107Z,985.16
2019-06-08T06:06:45.030Z,985.13
2019-06-08T06:07:44.976Z,985.18
2019-06-08T06:08:44.875Z,985.21
2019-06-08T06:09:45.162Z,985.24
2019-06-08T06:10:44.909Z,985.20
2019-06-08T06:11:44.831Z,985.24
2019-06-08T06:12:45.271Z,985.22
2019-06-08T06:13:45.156Z,985.24
2019-06-08T06:14:44.989Z,985.27
2019-06-08T06:15:44.918Z,985.31
2019-06-08T06:16:44.921Z,985.28
2019-06-08T06:17:46.673Z,985.30
2019-06-08T06:18:44.977Z,985.31
2019-06-08T06:19:45.168Z,985.32
2019-06-08T06:20:45.274Z,985.37
2019-06-08T06:21:45.098Z,985.37
2019-06-08T06:22:44.298Z,985.35
2019-06-08T06:23:43.744Z,985.36
2019-06-08T06:24:43.785Z,985.39
2019-06-08T06:25:43.584Z,985.40
2019-06-08T06:26:43.507Z,985.42
2019-06-08T06:27:43.523Z,985.46
2019-06-08T06:28:43.365Z,985.46
2019-06-08T06:29:43.536Z,985.46
2019-06-08T06:30:44.168Z,985.42
2019-06-08T06:31:43.705Z,985.41
2019-06-08T06:32:43.823Z,985.45
2019-06-08T06:33:43.817Z,985.45
2019-06-08T06:34:43.889Z,985.48
2019-06-08T06:35:43.779Z,985.44
2019-06-08T06:36:43.849Z,985.41
2019-06-08T06:37:43.777Z,985.47
2019-06-08T06:38:43.744Z,985.48
2019-06-08T06:39:43.845Z,985.50
2019-06-08T06:40:43.834Z,985.52
2019-06-08T06:41:43.929Z,985.55
2019-06-08T06:42:42.298Z,985.56
2019-06-08T06:43:42.333Z,985.59
2019-06-08T06:44:42.246Z,985.63
2019-06-08T06:45:42.068Z,985.64
2019-06-08T06:46:41.995Z,985.65
2019-06-08T06:47:42.300Z,985.68
2019-06-08T06:48:42.075Z,985.63
2019-06-08T06:49:42.370Z,985.69
2019-06-08T06:50:42.257Z,985.70
2019-06-08T06:51:42.343Z,985.70
2019-06-08T06:52:42.757Z,985.70
2019-06-08T06:53:42.668Z,985.73
2019-06-08T06:54:42.677Z,985.77
2019-06-08T06:55:41.310Z,985.75
2019-06-08T06:56:41.256Z,985.76
2019-06-08T06:57:41.159Z,985.79
2019-06-08T06:58:41.080Z,985.79
2019-06-08T06:59:41.006Z,985.76
2019-06-08T07:00:40.929Z,985.75
2019-06-08T07:01:40.873Z,985.74
2019-06-08T07:02:40.781Z,985.72
2019-06-08T07:03:40.708Z,985.71
2019-06-08T07:04:40.630Z,985.70
2019-06-08T07:05:40.551Z,985.74
2019-06-08T07:06:40.477Z,985.71
2019-06-08T07:07:40.398Z,985.71
2019-06-08T07:08:42.053Z,985.73
2019-06-08T07:09:40.248Z,985.74
2019-06-08T07:10:40.173Z,985.75
2019-06-08T07:11:40.097Z,985.81
2019-06-08T07:12:40.020Z,985.79
2019-06-08T07:13:39.943Z,985.74
2019-06-08T07:14:39.867Z,985.76
2019-06-08T07:15:41.701Z,985.77
2019-06-08T07:16:39.720Z,985.77
2019-06-08T07:17:39.640Z,985.78
2019-06-08T07:18:39.567Z,985.77
2019-06-08T07:19:39.490Z,985.75
2019-06-08T07:20:39.414Z,985.77
2019-06-08T07:21:42.042Z,985.69
2019-06-08T07:22:39.262Z,985.81
2019-06-08T07:23:39.189Z,985.78
2019-06-08T07:24:39.120Z,985.84
2019-06-08T07:25:39.036Z,985.90
2019-06-08T07:26:39.018Z,985.98
2019-06-08T07:27:38.880Z,985.94
2019-06-08T07:28:38.807Z,985.95
2019-06-08T07:29:38.734Z,985.96
2019-06-08T07:30:38.654Z,986.03
2019-06-08T07:31:38.581Z,986.02
2019-06-08T07:32:38.505Z,986.02
2019-06-08T07:33:38.439Z,986.00
2019-06-08T07:34:41.100Z,986.01
2019-06-08T07:35:38.276Z,985.96
2019-06-08T07:36:38.200Z,985.99
2019-06-08T07:37:38.125Z,985.97
2019-06-08T07:38:38.049Z,986.01
2019-06-08T07:39:37.975Z,985.97
2019-06-08T07:40:37.897Z,985.99
2019-06-08T07:41:37.839Z,985.96
2019-06-08T07:42:37.746Z,985.97
2019-06-08T07:43:37.662Z,985.90
2019-06-08T07:44:37.591Z,985.96
2019-06-08T07:45:37.527Z,985.94
2019-06-08T07:46:37.434Z,986.01
2019-06-08T07:47:37.365Z,986.00
2019-06-08T07:48:37.283Z,986.03
2019-06-08T07:49:37.207Z,986.03
2019-06-08T07:50:37.135Z,986.00
2019-06-08T07:51:37.060Z,985.99
2019-06-08T07:52:36.983Z,986.04
2019-06-08T07:53:36.908Z,986.05
2019-06-08T07:54:36.825Z,986.06
2019-06-08T07:55:36.754Z,986.06
2019-06-08T07:56:36.679Z,986.12
2019-06-08T07:57:36.612Z,986.11
2019-06-08T07:58:36.527Z,986.12
2019-06-08T07:59:36.448Z,986.13
2019-06-08T08:00:36.377Z,986.12
2019-06-08T08:01:36.801Z,986.10
2019-06-08T08:02:36.226Z,986.08
2019-06-08T08:03:36.145Z,986.05
2019-06-08T08:04:36.065Z,986.10
2019-06-08T08:05:35.990Z,986.13
2019-06-08T08:06:35.922Z,986.15
2019-06-08T08:07:35.847Z,986.10
2019-06-08T08:08:35.766Z,986.14
2019-06-08T08:09:35.688Z,986.17
2019-06-08T08:10:35.611Z,986.21
2019-06-08T08:11:35.535Z,986.25
2019-06-08T08:12:35.455Z,986.17
2019-06-08T08:13:35.378Z,986.22
2019-06-08T08:14:35.307Z,986.21
2019-06-08T08:15:35.230Z,986.24
2019-06-08T08:16:35.151Z,986.27
2019-06-08T08:17:35.078Z,986.21
2019-06-08T08:18:35.006Z,986.26
2019-06-08T08:19:34.928Z,986.25
2019-06-08T08:20:34.851Z,986.25
2019-06-08T08:21:34.771Z,986.20
2019-06-08T08:22:34.700Z,986.20
2019-06-08T08:23:34.620Z,986.20
2019-06-08T08:24:34.546Z,986.21
2019-06-08T08:25:34.470Z,986.26
2019-06-08T08:26:34.767Z,986.24
2019-06-08T08:27:34.314Z,986.25
2019-06-08T08:28:34.245Z,986.23
2019-06-08T08:29:34.165Z,986.25
2019-06-08T08:30:34.084Z,986.23
2019-06-08T08:31:34.012Z,986.24
2019-06-08T08:32:33.934Z,986.23
2019-06-08T08:33:33.853Z,986.24
2019-06-08T08:35:41.371Z,986.23
2019-06-08T08:37:38.244Z,986.24
2019-06-08T08:38:38.171Z,986.25
2019-06-08T08:40:42.250Z,986.31
2019-06-08T08:41:42.168Z,986.29
2019-06-08T08:43:48.529Z,986.26
2019-06-08T08:44:48.505Z,986.27
2019-06-08T08:46:52.821Z,986.30
2019-06-08T08:47:51.258Z,986.26
2019-06-08T08:49:56.062Z,986.28
2019-06-08T08:50:56.190Z,986.27
2019-06-08T08:53:01.190Z,986.36
2019-06-08T08:54:03.947Z,986.28
2019-06-08T08:55:54.312Z,986.34
2019-06-08T08:56:55.416Z,986.33
2019-06-08T08:59:00.702Z,986.33
2019-06-08T09:00:04.329Z,986.33
2019-06-08T09:02:03.164Z,986.36
2019-06-08T09:03:28.752Z,986.39
2019-06-08T09:05:08.599Z,986.34
2019-06-08T09:06:08.654Z,986.31
2019-06-08T09:08:11.264Z,986.34
2019-06-08T09:09:11.175Z,986.35
2019-06-08T09:11:17.438Z,986.33
2019-06-08T09:12:18.068Z,986.41
2019-06-08T09:14:19.740Z,986.41
2019-06-08T09:15:19.639Z,986.42
2019-06-08T09:17:24.068Z,986.43
2019-06-08T09:18:23.993Z,986.45
2019-06-08T09:19:23.904Z,986.39
2019-06-08T09:20:23.826Z,986.44
2019-06-08T09:21:23.751Z,986.39
2019-06-08T09:22:23.694Z,986.41
2019-06-08T09:23:23.602Z,986.42
2019-06-08T09:24:23.521Z,986.43
2019-06-08T09:25:23.450Z,986.47
2019-06-08T09:26:23.389Z,986.43
2019-06-08T09:27:23.303Z,986.48
2019-06-08T09:28:23.220Z,986.48
2019-06-08T09:29:23.179Z,986.54
2019-06-08T09:30:23.141Z,986.53
2019-06-08T09:31:23.002Z,986.53
2019-06-08T09:32:23.042Z,986.58
2019-06-08T09:33:22.851Z,986.60
2019-06-08T09:34:22.858Z,986.53
2019-06-08T09:35:22.747Z,986.54
2019-06-08T09:36:22.616Z,986.56
2019-06-08T09:37:22.546Z,986.55
2019-06-08T09:38:22.472Z,986.56
2019-06-08T09:39:22.395Z,986.63
2019-06-08T09:40:22.318Z,986.56
2019-06-08T09:41:22.237Z,986.59
2019-06-08T09:42:22.173Z,986.56
2019-06-08T09:43:22.094Z,986.58
2019-06-08T09:44:22.018Z,986.54
2019-06-08T09:45:21.943Z,986.59
2019-06-08T09:46:21.885Z,986.56
2019-06-08T09:47:21.790Z,986.58
2019-06-08T09:48:21.717Z,986.64
2019-06-08T09:49:21.643Z,986.65
2019-06-08T09:50:21.577Z,986.61
2019-06-08T09:51:21.493Z,986.63
2019-06-08T09:52:21.753Z,986.57
2019-06-08T09:53:29.839Z,986.68
2019-06-08T09:54:21.269Z,986.61
2019-06-08T09:55:21.199Z,986.61
2019-06-08T09:56:21.149Z,986.59
2019-06-08T09:57:21.041Z,986.60
2019-06-08T09:58:20.978Z,986.59
2019-06-08T09:59:20.912Z,986.61
2019-06-08T10:00:22.240Z,986.65
2019-06-08T10:01:20.745Z,986.66
2019-06-08T10:02:20.673Z,986.67
2019-06-08T10:03:20.598Z,986.64
2019-06-08T10:04:20.590Z,986.72
2019-06-08T10:05:20.457Z,986.67
2019-06-08T10:06:20.576Z,986.65
2019-06-08T10:07:20.317Z,986.61
2019-06-08T10:08:20.883Z,986.60
2019-06-08T10:09:20.140Z,986.65
2019-06-08T10:10:20.093Z,986.61
2019-06-08T10:11:19.997Z,986.67
2019-06-08T10:12:19.927Z,986.69
2019-06-08T10:13:19.847Z,986.68
2019-06-08T10:14:19.771Z,986.64
2019-06-08T10:15:19.703Z,986.70
2019-06-08T10:16:19.624Z,986.68
2019-06-08T10:17:21.092Z,986.71
2019-06-08T10:18:19.490Z,986.69
2019-06-08T10:19:19.401Z,986.72
2019-06-08T10:20:19.324Z,986.69
2019-06-08T10:21:21.116Z,986.77
2019-06-08T10:22:19.174Z,986.84
2019-06-08T10:23:30.767Z,986.74
2019-06-08T10:24:19.030Z,986.82
2019-06-08T10:25:18.948Z,986.71
2019-06-08T10:26:18.877Z,986.71
2019-06-08T10:27:19.032Z,986.76
2019-06-08T10:28:21.588Z,986.73
2019-06-08T10:29:18.678Z,986.68
2019-06-08T10:30:18.578Z,986.74
2019-06-08T10:31:18.509Z,986.67
2019-06-08T10:32:18.465Z,986.64
2019-06-08T10:33:18.587Z,986.71
2019-06-08T10:34:18.281Z,986.68
2019-06-08T10:35:21.050Z,986.70
2019-06-08T10:36:18.344Z,986.69
2019-06-08T10:37:18.611Z,986.70
2019-06-08T10:38:18.278Z,986.74
2019-06-08T10:39:17.907Z,986.72
2019-06-08T10:40:18.713Z,986.64
2019-06-08T10:41:21.690Z,986.63
2019-06-08T10:42:18.119Z,986.65
2019-06-08T10:43:20.023Z,986.66
2019-06-08T10:44:18.255Z,986.65
2019-06-08T10:45:18.538Z,986.66
2019-06-08T10:46:20.672Z,986.66
2019-06-08T10:47:17.312Z,986.64
2019-06-08T10:48:17.899Z,986.62
2019-06-08T10:49:18.662Z,986.71
2019-06-08T10:50:19.063Z,986.66
2019-06-08T10:51:18.409Z,986.62
2019-06-08T10:52:20.097Z,986.63
2019-06-08T10:53:16.879Z,986.63
2019-06-08T10:54:17.415Z,986.59
2019-06-08T10:55:18.060Z,986.58
2019-06-08T10:56:18.653Z,986.62
2019-06-08T10:57:18.268Z,986.57
2019-06-08T10:58:19.305Z,986.60
2019-06-08T10:59:18.535Z,986.61
2019-06-08T11:00:22.624Z,986.69
2019-06-08T11:01:18.600Z,986.59
2019-06-08T11:02:18.683Z,986.64
2019-06-08T11:03:16.119Z,986.61
2019-06-08T11:04:18.477Z,986.64
2019-06-08T11:05:18.177Z,986.69
2019-06-08T11:06:18.556Z,986.61
2019-06-08T11:07:16.461Z,986.68
2019-06-08T11:08:15.749Z,986.66
2019-06-08T11:09:18.607Z,986.61
2019-06-08T11:10:15.600Z,986.67
2019-06-08T11:11:19.540Z,986.68
2019-06-08T11:12:18.155Z,986.66
2019-06-08T11:13:18.271Z,986.66
2019-06-08T11:14:15.304Z,986.63
2019-06-08T11:15:15.224Z,986.66
2019-06-08T11:16:17.662Z,986.64
2019-06-08T11:17:17.748Z,986.61
2019-06-08T11:18:15.008Z,986.64
2019-06-08T11:19:17.785Z,986.56
2019-06-08T11:20:14.856Z,986.56
2019-06-08T11:21:14.774Z,986.60
2019-06-08T11:22:15.417Z,986.60
2019-06-08T11:23:14.640Z,986.64
2019-06-08T11:24:23.617Z,986.65
2019-06-08T11:25:16.640Z,986.63
2019-06-08T11:26:21.009Z,986.66
2019-06-08T11:27:14.335Z,986.67
2019-06-08T11:28:15.289Z,986.60
2019-06-08T11:29:14.273Z,986.55
2019-06-08T11:30:20.462Z,986.52
2019-06-08T11:31:15.922Z,986.56
2019-06-08T11:32:13.982Z,986.54
2019-06-08T11:33:13.900Z,986.63
2019-06-08T11:34:13.823Z,986.57
2019-06-08T11:35:13.745Z,986.57
2019-06-08T11:36:14.852Z,986.59
2019-06-08T11:37:13.879Z,986.58
2019-06-08T11:38:13.551Z,986.57
2019-06-08T11:39:13.456Z,986.67
2019-06-08T11:40:13.382Z,986.49
2019-06-08T11:41:13.833Z,986.66
2019-06-08T11:42:13.301Z,986.54
2019-06-08T11:43:13.181Z,986.63
2019-06-08T11:44:14.736Z,986.55
2019-06-08T11:45:13.301Z,986.55
2019-06-08T11:46:12.980Z,986.52
2019-06-08T11:47:13.521Z,986.43
2019-06-08T11:48:12.796Z,986.38
2019-06-08T11:49:15.052Z,986.40
2019-06-08T11:50:13.386Z,986.45
2019-06-08T11:51:13.102Z,986.39
2019-06-08T11:52:12.507Z,986.40
2019-06-08T11:53:14.695Z,986.43
2019-06-08T11:54:27.378Z,986.51
2019-06-08T11:55:13.185Z,986.50
2019-06-08T11:56:13.620Z,986.48
2019-06-08T11:57:12.984Z,986.45
2019-06-08T11:58:13.737Z,986.39
2019-06-08T11:59:14.331Z,986.49
2019-06-08T12:00:24.154Z,986.48
2019-06-08T12:01:13.775Z,986.37
2019-06-08T12:02:14.004Z,986.37
2019-06-08T12:03:13.039Z,986.40
2019-06-08T12:04:11.916Z,986.38
2019-06-08T12:05:13.973Z,986.41
2019-06-08T12:06:14.104Z,986.48
2019-06-08T12:07:12.740Z,986.41
2019-06-08T12:08:12.630Z,986.44
2019-06-08T12:09:12.714Z,986.47
2019-06-08T12:10:12.692Z,986.47
2019-06-08T12:11:16.423Z,986.46
2019-06-08T12:12:15.427Z,986.48
2019-06-08T12:13:12.834Z,986.54
2019-06-08T12:14:12.501Z,986.52
2019-06-08T12:15:13.217Z,986.53
2019-06-08T12:16:15.737Z,986.52
2019-06-08T12:17:15.395Z,986.63
2019-06-08T12:18:12.251Z,986.50
2019-06-08T12:19:14.085Z,986.48
2019-06-08T12:20:13.756Z,986.49
2019-06-08T12:21:11.438Z,986.45
2019-06-08T12:22:11.621Z,986.42
2019-06-08T12:23:10.288Z,986.49
2019-06-08T12:24:10.420Z,986.51
2019-06-08T12:25:10.372Z,986.51
2019-06-08T12:26:10.228Z,986.43
2019-06-08T12:27:22.042Z,986.63
2019-06-08T12:28:10.674Z,986.52
2019-06-08T12:29:12.762Z,986.42
2019-06-08T12:30:17.424Z,986.44
2019-06-08T12:31:15.664Z,986.47
2019-06-08T12:32:12.255Z,986.36
2019-06-08T12:33:10.911Z,986.40
2019-06-08T12:34:09.550Z,986.47
2019-06-08T12:35:10.910Z,986.55
2019-06-08T12:36:13.602Z,986.49
2019-06-08T12:37:15.627Z,986.38
2019-06-08T12:38:10.003Z,986.52
2019-06-08T12:39:10.097Z,986.55
2019-06-08T12:40:11.706Z,986.48
2019-06-08T12:41:11.074Z,986.39
2019-06-08T12:42:15.591Z,986.46
2019-06-08T12:43:11.301Z,986.41
2019-06-08T12:44:10.400Z,986.47
2019-06-08T12:45:09.348Z,986.46